sensor_id;sensor_type;location;lat;lon;timestamp;temperature;humidity
1015;DHT22;8170;48.118;11.628;2022-07-06T00:00:20;18.60;99.90
1015;DHT22;8170;48.118;11.628;2022-07-06T00:01:24;18.60;99.90
1015;DHT22;8170;48.118;11.628;2022-07-06T00:02:27;18.60;99.90
1015;DHT22;8170;48.118;11.628;2022-07-06T00:03:50;18.70;99.90
1015;DHT22;8170;48.118;11.628;2022-07-06T00:05:07;18.70;99.90
1015;DHT22;8170;48.118;11.628;2022-07-06T00:06:10;18.70;99.90
1015;DHT22;8170;48.118;11.628;2022-07-06T00:07:13;18.70;99.90
1015;DHT22;8170;48.118;11.628;2022-07-06T00:08:18;18.70;99.90
1015;DHT22;8170;48.118;11.628;2022-07-06T00:09:21;18.70;99.90
1015;DHT22;8170;48.118;11.628;2022-07-06T00:10:25;18.70;99.90
1015;DHT22;8170;48.118;11.628;2022-07-06T00:11:27;18.70;99.90
1015;DHT22;8170;48.118;11.628;2022-07-06T00:12:31;18.60;99.90
1015;DHT22;8170;48.118;11.628;2022-07-06T00:13:33;18.70;99.90
1015;DHT22;8170;48.118;11.628;2022-07-06T00:14:36;18.70;99.90
1015;DHT22;8170;48.118;11.628;2022-07-06T00:15:39;18.70;99.90
1015;DHT22;8170;48.118;11.628;2022-07-06T00:16:42;18.70;99.90
1015;DHT22;8170;48.118;11.628;2022-07-06T00:17:44;18.70;99.90
1015;DHT22;8170;48.118;11.628;2022-07-06T00:18:48;18.70;99.90
1015;DHT22;8170;48.118;11.628;2022-07-06T00:19:50;18.70;99.90
1015;DHT22;8170;48.118;11.628;2022-07-06T00:21:07;18.70;99.90
1015;DHT22;8170;48.118;11.628;2022-07-06T00:22:10;18.70;99.90
1015;DHT22;8170;48.118;11.628;2022-07-06T00:23:13;18.70;99.90
1015;DHT22;8170;48.118;11.628;2022-07-06T00:24:19;18.70;99.90
1015;DHT22;8170;48.118;11.628;2022-07-06T00:25:23;18.70;99.90
1015;DHT22;8170;48.118;11.628;2022-07-06T00:26:25;18.70;99.90
1015;DHT22;8170;48.118;11.628;2022-07-06T00:27:28;18.70;99.90
1015;DHT22;8170;48.118;11.628;2022-07-06T00:28:30;18.70;99.90
1015;DHT22;8170;48.118;11.628;2022-07-06T00:29:34;18.60;99.90
1015;DHT22;8170;48.118;11.628;2022-07-06T00:30:36;18.60;99.90
1015;DHT22;8170;48.118;11.628;2022-07-06T00:31:40;18.60;99.90
1015;DHT22;8170;48.118;11.628;2022-07-06T00:32:42;18.60;99.90
1015;DHT22;8170;48.118;11.628;2022-07-06T00:33:54;18.60;99.90
1015;DHT22;8170;48.118;11.628;2022-07-06T00:34:57;18.50;99.90
1015;DHT22;8170;48.118;11.628;2022-07-06T00:36:00;18.50;99.90
1015;DHT22;8170;48.118;11.628;2022-07-06T00:37:02;18.50;99.90
1015;DHT22;8170;48.118;11.628;2022-07-06T00:38:06;18.50;99.90
1015;DHT22;8170;48.118;11.628;2022-07-06T00:39:08;18.50;99.90
1015;DHT22;8170;48.118;11.628;2022-07-06T00:40:13;18.50;99.90
1015;DHT22;8170;48.118;11.628;2022-07-06T00:41:15;18.50;99.90
1015;DHT22;8170;48.118;11.628;2022-07-06T00:42:18;18.50;99.90
1015;DHT22;8170;48.118;11.628;2022-07-06T00:43:20;18.40;99.90
1015;DHT22;8170;48.118;11.628;2022-07-06T00:44:24;18.40;99.90
1015;DHT22;8170;48.118;11.628;2022-07-06T00:45:26;18.30;99.90
1015;DHT22;8170;48.118;11.628;2022-07-06T00:46:31;18.30;99.90
1015;DHT22;8170;48.118;11.628;2022-07-06T00:47:34;18.30;99.90
1015;DHT22;8170;48.118;11.628;2022-07-06T00:48:38;18.30;99.90
1015;DHT22;8170;48.118;11.628;2022-07-06T00:49:40;18.30;99.90
1015;DHT22;8170;48.118;11.628;2022-07-06T00:51:01;18.30;99.90
1015;DHT22;8170;48.118;11.628;2022-07-06T00:52:04;18.30;99.90
1015;DHT22;8170;48.118;11.628;2022-07-06T00:53:07;18.20;99.90
1015;DHT22;8170;48.118;11.628;2022-07-06T00:54:10;18.20;99.90
1015;DHT22;8170;48.118;11.628;2022-07-06T00:55:16;18.20;99.90
1015;DHT22;8170;48.118;11.628;2022-07-06T00:56:20;18.20;99.90
1015;DHT22;8170;48.118;11.628;2022-07-06T00:57:23;18.20;99.90
1015;DHT22;8170;48.118;11.628;2022-07-06T00:58:26;18.20;99.90
1015;DHT22;8170;48.118;11.628;2022-07-06T00:59:28;18.20;99.90
1015;DHT22;8170;48.118;11.628;2022-07-06T01:00:32;18.20;99.90
1015;DHT22;8170;48.118;11.628;2022-07-06T01:01:35;18.20;99.90
1015;DHT22;8170;48.118;11.628;2022-07-06T01:02:38;18.20;99.90
1015;DHT22;8170;48.118;11.628;2022-07-06T01:03:41;18.10;99.90
1015;DHT22;8170;48.118;11.628;2022-07-06T01:04:44;18.10;99.90
1015;DHT22;8170;48.118;11.628;2022-07-06T01:05:47;18.10;99.90
1015;DHT22;8170;48.118;11.628;2022-07-06T01:06:50;18.10;99.90
1015;DHT22;8170;48.118;11.628;2022-07-06T01:07:53;18.00;99.90
1015;DHT22;8170;48.118;11.628;2022-07-06T01:08:59;18.00;99.90
1015;DHT22;8170;48.118;11.628;2022-07-06T01:10:02;18.00;99.90
1015;DHT22;8170;48.118;11.628;2022-07-06T01:11:07;18.00;99.90
1015;DHT22;8170;48.118;11.628;2022-07-06T01:12:10;18.00;99.90
1015;DHT22;8170;48.118;11.628;2022-07-06T01:13:13;18.10;99.90
1015;DHT22;8170;48.118;11.628;2022-07-06T01:14:15;18.10;99.90
1015;DHT22;8170;48.118;11.628;2022-07-06T01:15:21;18.10;99.90
1015;DHT22;8170;48.118;11.628;2022-07-06T01:16:24;18.10;99.90
1015;DHT22;8170;48.118;11.628;2022-07-06T01:17:28;18.10;99.90
1015;DHT22;8170;48.118;11.628;2022-07-06T01:18:30;18.10;99.90
1015;DHT22;8170;48.118;11.628;2022-07-06T01:19:34;18.10;99.90
1015;DHT22;8170;48.118;11.628;2022-07-06T01:20:38;18.10;99.90
1015;DHT22;8170;48.118;11.628;2022-07-06T01:21:41;18.10;99.90
1015;DHT22;8170;48.118;11.628;2022-07-06T01:22:44;18.10;99.90
1015;DHT22;8170;48.118;11.628;2022-07-06T01:23:47;18.10;99.90
1015;DHT22;8170;48.118;11.628;2022-07-06T01:24:50;18.10;99.90
1015;DHT22;8170;48.118;11.628;2022-07-06T01:25:54;18.00;99.90
1015;DHT22;8170;48.118;11.628;2022-07-06T01:26:57;18.00;99.90
1015;DHT22;8170;48.118;11.628;2022-07-06T01:28:01;18.00;99.90
1015;DHT22;8170;48.118;11.628;2022-07-06T01:29:05;17.90;99.90
1015;DHT22;8170;48.118;11.628;2022-07-06T01:30:10;17.90;99.90
1015;DHT22;8170;48.118;11.628;2022-07-06T01:31:18;17.90;99.90
1015;DHT22;8170;48.118;11.628;2022-07-06T01:32:21;17.90;99.90
1015;DHT22;8170;48.118;11.628;2022-07-06T01:33:24;17.90;99.90
1015;DHT22;8170;48.118;11.628;2022-07-06T01:34:28;17.90;99.90
1015;DHT22;8170;48.118;11.628;2022-07-06T01:35:32;17.90;99.90
1015;DHT22;8170;48.118;11.628;2022-07-06T01:36:38;17.80;99.90
1015;DHT22;8170;48.118;11.628;2022-07-06T01:37:41;17.80;99.90
1015;DHT22;8170;48.118;11.628;2022-07-06T01:38:45;17.70;99.90
1015;DHT22;8170;48.118;11.628;2022-07-06T01:39:47;17.80;99.90
1015;DHT22;8170;48.118;11.628;2022-07-06T01:40:51;17.70;99.90
1015;DHT22;8170;48.118;11.628;2022-07-06T01:41:53;17.70;99.90
1015;DHT22;8170;48.118;11.628;2022-07-06T01:42:56;17.70;99.90
1015;DHT22;8170;48.118;11.628;2022-07-06T01:43:59;17.60;99.90
1015;DHT22;8170;48.118;11.628;2022-07-06T01:45:03;17.60;99.90
1015;DHT22;8170;48.118;11.628;2022-07-06T01:46:06;17.60;99.90
1015;DHT22;8170;48.118;11.628;2022-07-06T01:47:09;17.60;99.90
1015;DHT22;8170;48.118;11.628;2022-07-06T01:48:12;17.50;99.90
1015;DHT22;8170;48.118;11.628;2022-07-06T01:49:15;17.50;99.90
1015;DHT22;8170;48.118;11.628;2022-07-06T01:50:17;17.50;99.90
1015;DHT22;8170;48.118;11.628;2022-07-06T01:51:22;17.50;99.90
1015;DHT22;8170;48.118;11.628;2022-07-06T01:52:26;17.40;99.90
1015;DHT22;8170;48.118;11.628;2022-07-06T01:53:29;17.50;99.90
1015;DHT22;8170;48.118;11.628;2022-07-06T01:54:32;17.50;99.90
1015;DHT22;8170;48.118;11.628;2022-07-06T01:55:36;17.50;99.90
1015;DHT22;8170;48.118;11.628;2022-07-06T01:56:38;17.50;99.90
1015;DHT22;8170;48.118;11.628;2022-07-06T01:57:41;17.40;99.90
1015;DHT22;8170;48.118;11.628;2022-07-06T01:58:46;17.40;99.90
1015;DHT22;8170;48.118;11.628;2022-07-06T01:59:49;17.40;99.90
1015;DHT22;8170;48.118;11.628;2022-07-06T02:00:52;17.30;99.90
1015;DHT22;8170;48.118;11.628;2022-07-06T02:01:56;17.30;99.90
1015;DHT22;8170;48.118;11.628;2022-07-06T02:02:58;17.30;99.90
1015;DHT22;8170;48.118;11.628;2022-07-06T02:04:02;17.30;99.90
1015;DHT22;8170;48.118;11.628;2022-07-06T02:05:05;17.30;99.90
1015;DHT22;8170;48.118;11.628;2022-07-06T02:06:10;17.30;99.90
1015;DHT22;8170;48.118;11.628;2022-07-06T02:07:14;17.20;99.90
1015;DHT22;8170;48.118;11.628;2022-07-06T02:08:18;17.20;99.90
1015;DHT22;8170;48.118;11.628;2022-07-06T02:09:22;17.20;99.90
1015;DHT22;8170;48.118;11.628;2022-07-06T02:10:25;17.20;99.90
1015;DHT22;8170;48.118;11.628;2022-07-06T02:11:27;17.20;99.90
1015;DHT22;8170;48.118;11.628;2022-07-06T02:12:31;17.20;99.90
1015;DHT22;8170;48.118;11.628;2022-07-06T02:13:33;17.20;99.90
1015;DHT22;8170;48.118;11.628;2022-07-06T02:14:36;17.20;99.90
1015;DHT22;8170;48.118;11.628;2022-07-06T02:15:39;17.20;99.90
1015;DHT22;8170;48.118;11.628;2022-07-06T02:16:42;17.10;99.90
1015;DHT22;8170;48.118;11.628;2022-07-06T02:17:44;17.10;99.90
1015;DHT22;8170;48.118;11.628;2022-07-06T02:18:48;17.00;99.90
1015;DHT22;8170;48.118;11.628;2022-07-06T02:19:50;17.00;99.90
1015;DHT22;8170;48.118;11.628;2022-07-06T02:20:53;17.00;99.90
1015;DHT22;8170;48.118;11.628;2022-07-06T02:21:55;17.00;99.90
1015;DHT22;8170;48.118;11.628;2022-07-06T02:22:58;17.00;99.90
1015;DHT22;8170;48.118;11.628;2022-07-06T02:24:02;17.00;99.90
1015;DHT22;8170;48.118;11.628;2022-07-06T02:25:07;17.00;99.90
1015;DHT22;8170;48.118;11.628;2022-07-06T02:26:10;17.00;99.90
1015;DHT22;8170;48.118;11.628;2022-07-06T02:27:13;17.00;99.90
1015;DHT22;8170;48.118;11.628;2022-07-06T02:28:16;17.00;99.90
1015;DHT22;8170;48.118;11.628;2022-07-06T02:29:19;17.00;99.90
1015;DHT22;8170;48.118;11.628;2022-07-06T02:30:22;17.00;99.90
1015;DHT22;8170;48.118;11.628;2022-07-06T02:31:25;17.00;99.90
1015;DHT22;8170;48.118;11.628;2022-07-06T02:32:27;17.00;99.90
1015;DHT22;8170;48.118;11.628;2022-07-06T02:33:30;17.00;99.90
1015;DHT22;8170;48.118;11.628;2022-07-06T02:34:33;17.00;99.90
1015;DHT22;8170;48.118;11.628;2022-07-06T02:35:37;17.00;99.90
1015;DHT22;8170;48.118;11.628;2022-07-06T02:36:45;17.10;99.90
1015;DHT22;8170;48.118;11.628;2022-07-06T02:37:48;17.00;99.90
1015;DHT22;8170;48.118;11.628;2022-07-06T02:38:50;17.00;99.90
1015;DHT22;8170;48.118;11.628;2022-07-06T02:39:55;17.00;99.90
1015;DHT22;8170;48.118;11.628;2022-07-06T02:40:57;17.00;99.90
1015;DHT22;8170;48.118;11.628;2022-07-06T02:42:01;17.00;99.90
1015;DHT22;8170;48.118;11.628;2022-07-06T02:43:03;17.00;99.90
1015;DHT22;8170;48.118;11.628;2022-07-06T02:44:06;16.90;99.90
1015;DHT22;8170;48.118;11.628;2022-07-06T02:45:10;16.90;99.90
1015;DHT22;8170;48.118;11.628;2022-07-06T02:46:13;16.90;99.90
1015;DHT22;8170;48.118;11.628;2022-07-06T02:47:16;16.90;99.90
1015;DHT22;8170;48.118;11.628;2022-07-06T02:48:19;16.90;99.90
1015;DHT22;8170;48.118;11.628;2022-07-06T02:49:25;16.90;99.90
1015;DHT22;8170;48.118;11.628;2022-07-06T02:50:28;16.90;99.90
1015;DHT22;8170;48.118;11.628;2022-07-06T02:51:31;16.90;99.90
1015;DHT22;8170;48.118;11.628;2022-07-06T02:52:34;16.80;99.90
1015;DHT22;8170;48.118;11.628;2022-07-06T02:53:42;16.80;99.90
1015;DHT22;8170;48.118;11.628;2022-07-06T02:54:46;16.80;99.90
1015;DHT22;8170;48.118;11.628;2022-07-06T02:55:50;16.80;99.90
1015;DHT22;8170;48.118;11.628;2022-07-06T02:56:54;16.70;99.90
1015;DHT22;8170;48.118;11.628;2022-07-06T02:57:56;16.70;99.90
1015;DHT22;8170;48.118;11.628;2022-07-06T02:59:00;16.70;99.90
1015;DHT22;8170;48.118;11.628;2022-07-06T03:00:04;16.70;99.90
1015;DHT22;8170;48.118;11.628;2022-07-06T03:01:07;16.70;99.90
1015;DHT22;8170;48.118;11.628;2022-07-06T03:02:10;16.60;99.90
1015;DHT22;8170;48.118;11.628;2022-07-06T03:03:13;16.60;99.90
1015;DHT22;8170;48.118;11.628;2022-07-06T03:04:16;16.60;99.90
1015;DHT22;8170;48.118;11.628;2022-07-06T03:05:20;16.60;99.90
1015;DHT22;8170;48.118;11.628;2022-07-06T03:06:22;16.60;99.90
1015;DHT22;8170;48.118;11.628;2022-07-06T03:07:26;16.60;99.90
1015;DHT22;8170;48.118;11.628;2022-07-06T03:08:28;16.50;99.90
1015;DHT22;8170;48.118;11.628;2022-07-06T03:09:32;16.50;99.90
1015;DHT22;8170;48.118;11.628;2022-07-06T03:10:34;16.50;99.90
1015;DHT22;8170;48.118;11.628;2022-07-06T03:11:39;16.50;99.90
1015;DHT22;8170;48.118;11.628;2022-07-06T03:12:42;16.50;99.90
1015;DHT22;8170;48.118;11.628;2022-07-06T03:13:45;16.50;99.90
1015;DHT22;8170;48.118;11.628;2022-07-06T03:14:48;16.50;99.90
1015;DHT22;8170;48.118;11.628;2022-07-06T03:15:51;16.40;99.90
1015;DHT22;8170;48.118;11.628;2022-07-06T03:16:54;16.40;99.90
1015;DHT22;8170;48.118;11.628;2022-07-06T03:17:57;16.40;99.90
1015;DHT22;8170;48.118;11.628;2022-07-06T03:19:01;16.40;99.90
1015;DHT22;8170;48.118;11.628;2022-07-06T03:20:04;16.40;99.90
1015;DHT22;8170;48.118;11.628;2022-07-06T03:21:08;16.40;99.90
1015;DHT22;8170;48.118;11.628;2022-07-06T03:22:11;16.40;99.90
1015;DHT22;8170;48.118;11.628;2022-07-06T03:23:13;16.40;99.90
1015;DHT22;8170;48.118;11.628;2022-07-06T03:24:16;16.40;99.90
1015;DHT22;8170;48.118;11.628;2022-07-06T03:25:19;16.30;99.90
1015;DHT22;8170;48.118;11.628;2022-07-06T03:26:22;16.30;99.90
1015;DHT22;8170;48.118;11.628;2022-07-06T03:27:26;16.30;99.90
1015;DHT22;8170;48.118;11.628;2022-07-06T03:28:29;16.20;99.90
1015;DHT22;8170;48.118;11.628;2022-07-06T03:29:32;16.20;99.90
1015;DHT22;8170;48.118;11.628;2022-07-06T03:30:35;16.20;99.90
1015;DHT22;8170;48.118;11.628;2022-07-06T03:31:37;16.20;99.90
1015;DHT22;8170;48.118;11.628;2022-07-06T03:32:41;16.20;99.90
1015;DHT22;8170;48.118;11.628;2022-07-06T03:33:44;16.20;99.90
1015;DHT22;8170;48.118;11.628;2022-07-06T03:34:48;16.30;99.90
1015;DHT22;8170;48.118;11.628;2022-07-06T03:35:50;16.30;99.90
1015;DHT22;8170;48.118;11.628;2022-07-06T03:36:53;16.30;99.90
1015;DHT22;8170;48.118;11.628;2022-07-06T03:37:57;16.30;99.90
1015;DHT22;8170;48.118;11.628;2022-07-06T03:39:03;16.30;99.90
1015;DHT22;8170;48.118;11.628;2022-07-06T03:40:09;16.30;99.90
1015;DHT22;8170;48.118;11.628;2022-07-06T03:41:11;16.30;99.90
1015;DHT22;8170;48.118;11.628;2022-07-06T03:42:15;16.30;99.90
1015;DHT22;8170;48.118;11.628;2022-07-06T03:43:19;16.20;99.90
1015;DHT22;8170;48.118;11.628;2022-07-06T03:44:23;16.20;99.90
1015;DHT22;8170;48.118;11.628;2022-07-06T03:45:25;16.30;99.90
1015;DHT22;8170;48.118;11.628;2022-07-06T03:46:29;16.30;99.90
1015;DHT22;8170;48.118;11.628;2022-07-06T03:47:32;16.20;99.90
1015;DHT22;8170;48.118;11.628;2022-07-06T03:48:36;16.10;99.90
1015;DHT22;8170;48.118;11.628;2022-07-06T03:49:40;16.10;99.90
1015;DHT22;8170;48.118;11.628;2022-07-06T03:50:44;16.10;99.90
1015;DHT22;8170;48.118;11.628;2022-07-06T03:51:46;16.10;99.90
1015;DHT22;8170;48.118;11.628;2022-07-06T03:52:49;16.10;99.90
1015;DHT22;8170;48.118;11.628;2022-07-06T03:53:51;16.20;99.90
1015;DHT22;8170;48.118;11.628;2022-07-06T03:54:55;16.10;99.90
1015;DHT22;8170;48.118;11.628;2022-07-06T03:56:01;16.10;99.90
1015;DHT22;8170;48.118;11.628;2022-07-06T03:57:23;16.10;99.90
1015;DHT22;8170;48.118;11.628;2022-07-06T03:58:30;16.20;99.90
1015;DHT22;8170;48.118;11.628;2022-07-06T03:59:32;16.30;99.90
1015;DHT22;8170;48.118;11.628;2022-07-06T04:00:35;16.30;99.90
1015;DHT22;8170;48.118;11.628;2022-07-06T04:01:41;16.40;99.90
1015;DHT22;8170;48.118;11.628;2022-07-06T04:02:48;16.50;99.90
1015;DHT22;8170;48.118;11.628;2022-07-06T04:03:56;16.50;99.90
1015;DHT22;8170;48.118;11.628;2022-07-06T04:05:00;16.60;99.90
1015;DHT22;8170;48.118;11.628;2022-07-06T04:06:02;16.70;99.90
1015;DHT22;8170;48.118;11.628;2022-07-06T04:07:07;16.70;99.90
1015;DHT22;8170;48.118;11.628;2022-07-06T04:08:09;16.80;99.90
1015;DHT22;8170;48.118;11.628;2022-07-06T04:09:17;16.90;99.90
1015;DHT22;8170;48.118;11.628;2022-07-06T04:10:22;16.90;99.90
1015;DHT22;8170;48.118;11.628;2022-07-06T04:11:25;17.00;99.90
1015;DHT22;8170;48.118;11.628;2022-07-06T04:12:28;17.10;99.90
1015;DHT22;8170;48.118;11.628;2022-07-06T04:13:32;17.10;99.90
1015;DHT22;8170;48.118;11.628;2022-07-06T04:14:36;17.20;99.90
1015;DHT22;8170;48.118;11.628;2022-07-06T04:15:39;17.30;99.90
1015;DHT22;8170;48.118;11.628;2022-07-06T04:16:42;17.40;99.90
1015;DHT22;8170;48.118;11.628;2022-07-06T04:17:46;17.50;99.90
1015;DHT22;8170;48.118;11.628;2022-07-06T04:18:58;17.50;99.90
1015;DHT22;8170;48.118;11.628;2022-07-06T04:20:01;17.60;99.90
1015;DHT22;8170;48.118;11.628;2022-07-06T04:21:04;17.70;99.90
1015;DHT22;8170;48.118;11.628;2022-07-06T04:22:09;17.80;99.90
1015;DHT22;8170;48.118;11.628;2022-07-06T04:23:12;17.90;99.90
1015;DHT22;8170;48.118;11.628;2022-07-06T04:24:15;17.90;99.90
1015;DHT22;8170;48.118;11.628;2022-07-06T04:25:19;18.00;99.90
1015;DHT22;8170;48.118;11.628;2022-07-06T04:26:21;18.00;99.90
1015;DHT22;8170;48.118;11.628;2022-07-06T04:27:25;18.00;99.90
1015;DHT22;8170;48.118;11.628;2022-07-06T04:28:27;17.90;99.90
1015;DHT22;8170;48.118;11.628;2022-07-06T04:29:32;18.00;99.90
1015;DHT22;8170;48.118;11.628;2022-07-06T04:30:34;18.00;99.90
1015;DHT22;8170;48.118;11.628;2022-07-06T04:31:39;18.10;99.90
1015;DHT22;8170;48.118;11.628;2022-07-06T04:32:42;18.10;99.90
1015;DHT22;8170;48.118;11.628;2022-07-06T04:33:45;18.20;99.90
1015;DHT22;8170;48.118;11.628;2022-07-06T04:34:48;18.20;99.90
1015;DHT22;8170;48.118;11.628;2022-07-06T04:35:51;18.20;99.90
1015;DHT22;8170;48.118;11.628;2022-07-06T04:36:57;18.20;99.90
1015;DHT22;8170;48.118;11.628;2022-07-06T04:37:59;18.20;99.90
1015;DHT22;8170;48.118;11.628;2022-07-06T04:39:03;18.20;99.90
1015;DHT22;8170;48.118;11.628;2022-07-06T04:40:07;18.30;99.90
1015;DHT22;8170;48.118;11.628;2022-07-06T04:41:18;18.40;99.90
1015;DHT22;8170;48.118;11.628;2022-07-06T04:42:22;18.40;99.90
1015;DHT22;8170;48.118;11.628;2022-07-06T04:43:24;18.60;99.90
1015;DHT22;8170;48.118;11.628;2022-07-06T04:44:27;18.70;99.90
1015;DHT22;8170;48.118;11.628;2022-07-06T04:45:31;18.70;99.90
1015;DHT22;8170;48.118;11.628;2022-07-06T04:46:35;18.60;99.90
1015;DHT22;8170;48.118;11.628;2022-07-06T04:47:37;18.40;99.90
1015;DHT22;8170;48.118;11.628;2022-07-06T04:48:41;18.50;99.90
1015;DHT22;8170;48.118;11.628;2022-07-06T04:49:48;18.40;99.90
1015;DHT22;8170;48.118;11.628;2022-07-06T04:50:51;18.40;99.90
1015;DHT22;8170;48.118;11.628;2022-07-06T04:52:00;18.50;99.90
1015;DHT22;8170;48.118;11.628;2022-07-06T04:53:03;18.50;99.90
1015;DHT22;8170;48.118;11.628;2022-07-06T04:54:08;18.70;99.90
1015;DHT22;8170;48.118;11.628;2022-07-06T04:55:10;19.20;99.90
1015;DHT22;8170;48.118;11.628;2022-07-06T04:56:16;19.70;99.90
1015;DHT22;8170;48.118;11.628;2022-07-06T04:57:18;20.30;99.90
1015;DHT22;8170;48.118;11.628;2022-07-06T04:58:22;20.80;99.90
1015;DHT22;8170;48.118;11.628;2022-07-06T04:59:24;21.40;99.90
1015;DHT22;8170;48.118;11.628;2022-07-06T05:00:30;21.80;99.90
1015;DHT22;8170;48.118;11.628;2022-07-06T05:01:33;21.80;99.90
1015;DHT22;8170;48.118;11.628;2022-07-06T05:02:36;21.70;99.90
1015;DHT22;8170;48.118;11.628;2022-07-06T05:03:39;21.60;99.90
1015;DHT22;8170;48.118;11.628;2022-07-06T05:04:44;21.60;99.90
1015;DHT22;8170;48.118;11.628;2022-07-06T05:05:46;21.50;99.90
1015;DHT22;8170;48.118;11.628;2022-07-06T05:06:50;21.30;99.90
1015;DHT22;8170;48.118;11.628;2022-07-06T05:07:52;21.40;99.90
1015;DHT22;8170;48.118;11.628;2022-07-06T05:08:55;21.60;99.90
1015;DHT22;8170;48.118;11.628;2022-07-06T05:09:59;22.00;99.90
1015;DHT22;8170;48.118;11.628;2022-07-06T05:11:04;22.30;99.90
1015;DHT22;8170;48.118;11.628;2022-07-06T05:12:07;22.50;99.90
1015;DHT22;8170;48.118;11.628;2022-07-06T05:13:11;22.80;99.90
1015;DHT22;8170;48.118;11.628;2022-07-06T05:14:13;23.00;99.90
1015;DHT22;8170;48.118;11.628;2022-07-06T05:15:16;23.30;99.90
1015;DHT22;8170;48.118;11.628;2022-07-06T05:16:21;23.30;99.90
1015;DHT22;8170;48.118;11.628;2022-07-06T05:17:24;23.50;99.90
1015;DHT22;8170;48.118;11.628;2022-07-06T05:18:32;23.30;99.90
1015;DHT22;8170;48.118;11.628;2022-07-06T05:19:37;23.10;99.90
1015;DHT22;8170;48.118;11.628;2022-07-06T05:20:40;23.30;99.90
1015;DHT22;8170;48.118;11.628;2022-07-06T05:21:43;23.30;99.90
1015;DHT22;8170;48.118;11.628;2022-07-06T05:22:47;23.60;99.90
1015;DHT22;8170;48.118;11.628;2022-07-06T05:23:53;24.10;99.90
1015;DHT22;8170;48.118;11.628;2022-07-06T05:24:56;24.00;99.90
1015;DHT22;8170;48.118;11.628;2022-07-06T05:25:58;24.00;99.90
1015;DHT22;8170;48.118;11.628;2022-07-06T05:27:02;24.10;99.90
1015;DHT22;8170;48.118;11.628;2022-07-06T05:28:05;24.30;99.90
1015;DHT22;8170;48.118;11.628;2022-07-06T05:29:08;24.30;99.90
1015;DHT22;8170;48.118;11.628;2022-07-06T05:30:11;24.50;99.90
1015;DHT22;8170;48.118;11.628;2022-07-06T05:31:14;24.90;99.90
1015;DHT22;8170;48.118;11.628;2022-07-06T05:32:18;25.20;99.90
1015;DHT22;8170;48.118;11.628;2022-07-06T05:33:22;25.60;99.90
1015;DHT22;8170;48.118;11.628;2022-07-06T05:34:25;25.70;99.90
1015;DHT22;8170;48.118;11.628;2022-07-06T05:35:29;25.70;99.90
1015;DHT22;8170;48.118;11.628;2022-07-06T05:36:53;25.80;99.90
1015;DHT22;8170;48.118;11.628;2022-07-06T05:37:56;25.80;99.90
1015;DHT22;8170;48.118;11.628;2022-07-06T05:38:58;25.60;99.90
1015;DHT22;8170;48.118;11.628;2022-07-06T05:40:02;25.80;99.90
1015;DHT22;8170;48.118;11.628;2022-07-06T05:41:04;25.80;99.90
1015;DHT22;8170;48.118;11.628;2022-07-06T05:42:08;26.20;99.90
1015;DHT22;8170;48.118;11.628;2022-07-06T05:43:11;26.40;99.70
1015;DHT22;8170;48.118;11.628;2022-07-06T05:44:14;26.60;99.50
1015;DHT22;8170;48.118;11.628;2022-07-06T05:45:16;26.00;99.00
1015;DHT22;8170;48.118;11.628;2022-07-06T05:46:19;25.20;99.90
1015;DHT22;8170;48.118;11.628;2022-07-06T05:47:24;24.30;99.90
1015;DHT22;8170;48.118;11.628;2022-07-06T05:48:44;23.90;99.90
1015;DHT22;8170;48.118;11.628;2022-07-06T05:50:06;24.40;99.90
1015;DHT22;8170;48.118;11.628;2022-07-06T05:51:24;24.50;99.90
1015;DHT22;8170;48.118;11.628;2022-07-06T05:52:28;24.70;99.90
1015;DHT22;8170;48.118;11.628;2022-07-06T05:53:30;24.70;99.90
1015;DHT22;8170;48.118;11.628;2022-07-06T05:54:33;24.90;99.90
1015;DHT22;8170;48.118;11.628;2022-07-06T05:55:35;25.10;99.90
1015;DHT22;8170;48.118;11.628;2022-07-06T05:56:38;25.60;99.90
1015;DHT22;8170;48.118;11.628;2022-07-06T05:57:40;25.90;99.90
1015;DHT22;8170;48.118;11.628;2022-07-06T05:58:45;26.50;99.20
1015;DHT22;8170;48.118;11.628;2022-07-06T05:59:48;26.50;98.40
1015;DHT22;8170;48.118;11.628;2022-07-06T06:00:50;26.50;98.50
1015;DHT22;8170;48.118;11.628;2022-07-06T06:01:54;26.50;98.40
1015;DHT22;8170;48.118;11.628;2022-07-06T06:03:00;26.80;97.50
1015;DHT22;8170;48.118;11.628;2022-07-06T06:04:03;26.50;97.10
1015;DHT22;8170;48.118;11.628;2022-07-06T06:05:09;26.30;97.80
1015;DHT22;8170;48.118;11.628;2022-07-06T06:06:13;26.30;97.50
1015;DHT22;8170;48.118;11.628;2022-07-06T06:07:16;26.60;98.20
1015;DHT22;8170;48.118;11.628;2022-07-06T06:08:18;27.00;96.90
1015;DHT22;8170;48.118;11.628;2022-07-06T06:09:24;27.60;95.90
1015;DHT22;8170;48.118;11.628;2022-07-06T06:10:27;28.00;94.70
1015;DHT22;8170;48.118;11.628;2022-07-06T06:11:33;28.20;94.50
1015;DHT22;8170;48.118;11.628;2022-07-06T06:12:37;28.20;93.80
1015;DHT22;8170;48.118;11.628;2022-07-06T06:13:40;28.50;93.70
1015;DHT22;8170;48.118;11.628;2022-07-06T06:14:43;28.40;93.20
1015;DHT22;8170;48.118;11.628;2022-07-06T06:15:45;28.70;92.70
1015;DHT22;8170;48.118;11.628;2022-07-06T06:16:49;29.20;92.00
1015;DHT22;8170;48.118;11.628;2022-07-06T06:17:52;28.90;91.70
1015;DHT22;8170;48.118;11.628;2022-07-06T06:18:57;28.60;92.20
1015;DHT22;8170;48.118;11.628;2022-07-06T06:20:00;28.90;92.20
1015;DHT22;8170;48.118;11.628;2022-07-06T06:21:02;29.10;91.50
1015;DHT22;8170;48.118;11.628;2022-07-06T06:22:05;28.90;91.60
1015;DHT22;8170;48.118;11.628;2022-07-06T06:24:57;28.50;92.30
1015;DHT22;8170;48.118;11.628;2022-07-06T06:51:45;31.00;82.30
1015;DHT22;8170;48.118;11.628;2022-07-06T06:53:22;30.40;83.10
1015;DHT22;8170;48.118;11.628;2022-07-06T06:54:52;30.30;82.70
1015;DHT22;8170;48.118;11.628;2022-07-06T06:56:32;30.10;82.10
1015;DHT22;8170;48.118;11.628;2022-07-06T06:58:14;30.50;82.70
1015;DHT22;8170;48.118;11.628;2022-07-06T07:00:01;30.80;80.70
1015;DHT22;8170;48.118;11.628;2022-07-06T07:04:45;31.30;77.80
1015;DHT22;8170;48.118;11.628;2022-07-06T07:08:36;31.00;73.50
1015;DHT22;8170;48.118;11.628;2022-07-06T07:09:57;29.50;76.80
1015;DHT22;8170;48.118;11.628;2022-07-06T07:14:28;29.40;80.30
1015;DHT22;8170;48.118;11.628;2022-07-06T07:16:25;30.50;76.50
1015;DHT22;8170;48.118;11.628;2022-07-06T07:18:00;30.90;75.60
1015;DHT22;8170;48.118;11.628;2022-07-06T07:19:32;31.00;73.50
1015;DHT22;8170;48.118;11.628;2022-07-06T07:21:24;31.30;73.30
1015;DHT22;8170;48.118;11.628;2022-07-06T07:23:22;31.90;72.80
1015;DHT22;8170;48.118;11.628;2022-07-06T07:36:58;31.00;70.80
1015;DHT22;8170;48.118;11.628;2022-07-06T07:43:22;30.90;74.60
1015;DHT22;8170;48.118;11.628;2022-07-06T07:52:01;31.20;73.10
1015;DHT22;8170;48.118;11.628;2022-07-06T07:56:32;29.70;73.90
1015;DHT22;8170;48.118;11.628;2022-07-06T07:59:05;30.00;74.30
1015;DHT22;8170;48.118;11.628;2022-07-06T08:05:32;30.90;72.70
1015;DHT22;8170;48.118;11.628;2022-07-06T08:13:22;30.00;69.10
1015;DHT22;8170;48.118;11.628;2022-07-06T08:17:21;29.50;71.00
1015;DHT22;8170;48.118;11.628;2022-07-06T08:18:53;29.30;67.30
1015;DHT22;8170;48.118;11.628;2022-07-06T08:20:38;28.80;72.10